Time;durP1;ratioP1;P1;durP2;ratioP2;P2;SDS_P1;SDS_P2;PMS_P1;PMS_P2;Temp;Humidity;BMP_temperature;BMP_pressure;BME280_temperature;BME280_humidity;BME280_pressure;Samples;Min_cycle;Max_cycle;Signal;HPM_P1;HPM_P2
2023/08/23 00:01:58;;;;;;;4.50;2.80;;;;;;;18.25;65.49;100611.93;107861;1257;61255;-69
2023/08/23 00:04:26;;;;;;;4.00;3.00;;;;;;;18.19;65.62;100610.77;107783;1257;74619;-69
2023/08/23 00:06:54;;;;;;;4.90;2.90;;;;;;;18.16;65.78;100613.30;107845;1257;73833;-70
2023/08/23 00:09:21;;;;;;;6.20;3.10;;;;;;;18.11;65.89;100608.80;107917;1256;72480;-70
2023/08/23 00:11:47;;;;;;;5.30;2.80;;;;;;;18.10;66.06;100613.96;107890;1258;61864;-71
2023/08/23 00:14:14;;;;;;;4.00;2.90;;;;;;;18.08;66.15;100614.13;107857;1257;61341;-72
2023/08/23 00:16:41;;;;;;;6.40;2.90;;;;;;;18.07;66.25;100609.89;107834;1256;74518;-70
2023/08/23 00:19:08;;;;;;;4.70;2.80;;;;;;;18.04;66.22;100606.20;107940;1257;72778;-70
2023/08/23 00:21:35;;;;;;;4.20;2.90;;;;;;;17.96;66.20;100616.13;107866;1257;73024;-70
2023/08/23 00:24:02;;;;;;;5.00;3.10;;;;;;;17.88;66.26;100615.00;107886;1254;62014;-72
2023/08/23 00:26:29;;;;;;;4.90;3.10;;;;;;;17.80;66.43;100623.44;107856;1257;61269;-71
2023/08/23 00:28:56;;;;;;;5.00;3.20;;;;;;;17.73;66.58;100619.63;107848;1254;74666;-70
2023/08/23 00:31:23;;;;;;;7.20;3.50;;;;;;;17.67;66.79;100626.48;107947;1257;72779;-71
2023/08/23 00:33:50;;;;;;;7.00;3.70;;;;;;;17.63;66.92;100626.48;107665;1259;72680;-71
2023/08/23 00:36:17;;;;;;;6.50;3.50;;;;;;;17.60;67.03;100628.58;107828;1259;61782;-71
2023/08/23 00:38:43;;;;;;;6.00;3.50;;;;;;;17.58;67.26;100627.55;107835;1257;61193;-71
2023/08/23 00:41:10;;;;;;;5.70;3.40;;;;;;;17.57;67.56;100627.36;107779;1259;74629;-71
2023/08/23 00:43:38;;;;;;;7.70;3.70;;;;;;;17.57;67.81;100627.61;107686;1257;73064;-71
2023/08/23 00:46:06;;;;;;;7.20;3.90;;;;;;;17.59;67.88;100632.11;107911;1256;72789;-71
2023/08/23 00:48:33;;;;;;;7.70;3.90;;;;;;;17.63;67.81;100633.02;107596;1255;61931;-70
2023/08/23 00:51:00;;;;;;;7.70;4.40;;;;;;;17.66;67.78;100633.48;107742;1256;61163;-71
2023/08/23 00:53:27;;;;;;;7.10;4.00;;;;;;;17.69;67.65;100635.48;107921;1257;73602;-71
2023/08/23 00:55:56;;;;;;;6.20;3.60;;;;;;;17.73;67.70;100631.52;107830;1257;72520;-71
2023/08/23 00:58:22;;;;;;;8.60;4.20;;;;;;;17.76;67.52;100625.68;107853;1257;72675;-70
2023/08/23 01:00:49;;;;;;;8.70;3.80;;;;;;;17.82;67.48;100611.89;107936;1257;61263;-71
2023/08/23 01:03:16;;;;;;;5.80;3.80;;;;;;;17.86;67.45;100608.66;107792;1256;61425;-71
2023/08/23 01:06:06;;;;;;;6.50;3.70;;;;;;;17.89;67.44;100611.29;107930;1257;74621;-71
2023/08/23 01:09:01;;;;;;;5.50;3.10;;;;;;;17.89;67.36;100609.63;107840;1259;72589;-72
2023/08/23 01:11:42;;;;;;;6.90;3.30;;;;;;;17.83;67.23;100611.44;107694;1256;72789;-71
2023/08/23 01:14:22;;;;;;;5.60;3.30;;;;;;;17.76;67.34;100609.35;107974;1257;61119;-71
2023/08/23 01:16:49;;;;;;;7.10;3.10;;;;;;;17.67;67.43;100605.33;107948;1257;59451;-70
2023/08/23 01:19:40;;;;;;;6.10;2.80;;;;;;;17.57;67.40;100596.40;107633;1258;74748;-71
2023/08/23 01:22:09;;;;;;;4.90;2.90;;;;;;;17.45;67.50;100592.50;107643;1258;72547;-71
2023/08/23 01:24:36;;;;;;;4.80;2.60;;;;;;;17.35;67.68;100593.50;107894;1260;72675;-69
2023/08/23 01:27:03;;;;;;;4.40;2.60;;;;;;;17.27;67.89;100593.98;107742;1257;61223;-70
2023/08/23 01:29:30;;;;;;;5.00;2.50;;;;;;;17.19;68.16;100590.98;107974;1257;59973;-70
2023/08/23 01:32:04;;;;;;;3.30;2.40;;;;;;;17.17;68.23;100589.92;107923;1258;74818;-70
2023/08/23 01:34:32;;;;;;;5.60;2.80;;;;;;;17.16;68.41;100587.32;107941;1257;71543;-71
2023/08/23 01:36:59;;;;;;;4.60;2.60;;;;;;;17.15;68.58;100585.92;107905;1257;72541;-70
2023/08/23 01:39:26;;;;;;;6.40;2.70;;;;;;;17.11;68.80;100596.80;107950;1257;61895;-70
2023/08/23 01:41:53;;;;;;;5.10;3.00;;;;;;;17.09;69.06;100598.17;107851;1254;61343;-70
2023/08/23 01:44:21;;;;;;;4.30;2.70;;;;;;;17.11;69.14;100592.00;107747;1258;74703;-69
2023/08/23 01:46:48;;;;;;;4.30;2.60;;;;;;;17.15;69.19;100596.52;107753;1257;73260;-70
2023/08/23 01:49:15;;;;;;;4.60;2.80;;;;;;;17.19;69.26;100598.48;107994;1257;71778;-70
2023/08/23 01:51:41;;;;;;;5.30;2.90;;;;;;;17.24;69.30;100599.61;107934;1260;61143;-70
2023/08/23 01:54:08;;;;;;;5.10;3.10;;;;;;;17.28;69.31;100603.59;107841;1257;61719;-70
2023/08/23 01:56:36;;;;;;;5.50;3.50;;;;;;;17.29;69.25;100600.75;107986;1257;73355;-70
2023/08/23 01:59:03;;;;;;;6.60;3.10;;;;;;;17.33;69.20;100593.29;107932;1258;73880;-71
2023/08/23 02:01:31;;;;;;;8.00;3.70;;;;;;;17.37;69.03;100594.45;107849;1259;73158;-72
2023/08/23 02:03:58;;;;;;;5.50;3.70;;;;;;;17.42;68.79;100592.45;107883;1256;61868;-71
2023/08/23 02:06:25;;;;;;;7.10;3.50;;;;;;;17.47;68.50;100595.70;107833;1256;61079;-70
2023/08/23 02:08:52;;;;;;;5.80;3.00;;;;;;;17.50;68.16;100598.65;107831;1257;74924;-70
2023/08/23 02:11:19;;;;;;;5.00;2.90;;;;;;;17.55;67.89;100593.90;107846;1257;73134;-72
2023/08/23 02:13:46;;;;;;;6.00;3.20;;;;;;;17.61;67.63;100590.81;107904;1257;71535;-72
2023/08/23 02:16:13;;;;;;;9.30;3.60;;;;;;;17.65;67.39;100597.70;107772;1255;61765;-69
2023/08/23 02:18:40;;;;;;;4.70;3.00;;;;;;;17.70;67.19;100597.95;107858;1256;61171;-72
2023/08/23 02:21:07;;;;;;;6.60;3.40;;;;;;;17.74;66.97;100601.98;108035;1257;75164;-70
2023/08/23 02:23:34;;;;;;;6.90;3.30;;;;;;;17.79;66.90;100600.07;107860;1258;71222;-70
2023/08/23 02:26:00;;;;;;;6.70;3.10;;;;;;;17.85;66.86;100592.98;107695;1260;71682;-70
2023/08/23 02:28:27;;;;;;;6.40;3.20;;;;;;;17.90;66.65;100589.61;107893;1254;64678;-70
2023/08/23 02:31:01;;;;;;;6.40;3.10;;;;;;;17.93;66.39;100590.95;107751;1257;61202;-70
2023/08/23 02:33:29;;;;;;;5.90;3.20;;;;;;;17.98;66.29;100593.05;108016;1259;74656;-71
2023/08/23 02:35:56;;;;;;;7.90;3.80;;;;;;;18.03;66.19;100596.50;107923;1257;72698;-71
2023/08/23 02:38:22;;;;;;;5.40;3.20;;;;;;;18.08;66.06;100603.09;107937;1257;73721;-70
2023/08/23 02:40:49;;;;;;;6.60;3.40;;;;;;;18.13;65.95;100604.59;107930;1256;62995;-72
2023/08/23 02:43:16;;;;;;;4.80;3.00;;;;;;;18.17;65.77;100593.30;107938;1257;61218;-69
2023/08/23 02:45:43;;;;;;;5.90;3.10;;;;;;;18.25;65.81;100586.42;107914;1256;74701;-70
2023/08/23 02:48:10;;;;;;;5.40;2.90;;;;;;;18.32;65.55;100591.50;107818;1257;72609;-69
2023/08/23 02:50:37;;;;;;;4.80;2.90;;;;;;;18.35;65.23;100601.85;107804;1257;71201;-71
2023/08/23 02:53:04;;;;;;;5.50;3.10;;;;;;;18.37;65.13;100591.83;107939;1256;63308;-70
2023/08/23 02:55:36;;;;;;;6.00;3.20;;;;;;;18.38;64.97;100584.70;107934;1257;61129;-71
2023/08/23 02:58:03;;;;;;;5.00;2.70;;;;;;;18.40;64.73;100586.80;107952;1258;73270;-72
2023/08/23 03:00:30;;;;;;;6.10;3.10;;;;;;;18.41;64.56;100588.50;107900;1255;73066;-71
2023/08/23 03:02:57;;;;;;;6.10;3.20;;;;;;;18.41;64.49;100594.36;107780;1257;72422;-71
2023/08/23 03:05:24;;;;;;;5.10;3.00;;;;;;;18.40;64.55;100601.73;107946;1257;61847;-71
2023/08/23 03:07:51;;;;;;;5.80;3.20;;;;;;;18.39;64.42;100612.44;107735;1256;61097;-71
2023/08/23 03:10:19;;;;;;;4.60;2.80;;;;;;;18.38;64.29;100618.38;107805;1257;74728;-69
2023/08/23 03:12:46;;;;;;;6.30;3.40;;;;;;;18.36;64.16;100621.80;107950;1256;72610;-71
2023/08/23 03:15:14;;;;;;;5.80;3.00;;;;;;;18.35;64.05;100618.23;107981;1256;72734;-71
2023/08/23 03:17:41;;;;;;;5.60;3.00;;;;;;;18.37;64.22;100615.17;107635;1257;61774;-71
2023/08/23 03:20:09;;;;;;;6.00;2.90;;;;;;;18.39;64.08;100616.19;107826;1256;61231;-70
2023/08/23 03:22:36;;;;;;;6.30;3.60;;;;;;;18.37;63.91;100619.52;107950;1256;73701;-70
2023/08/23 03:25:04;;;;;;;4.90;3.10;;;;;;;18.37;63.98;100631.02;107956;1256;73166;-70
2023/08/23 03:27:32;;;;;;;5.70;3.60;;;;;;;18.41;64.06;100634.15;107801;1257;71391;-70
2023/08/23 03:29:59;;;;;;;5.70;3.20;;;;;;;18.46;63.98;100635.17;107620;1257;61237;-72
2023/08/23 03:32:26;;;;;;;5.10;2.90;;;;;;;18.48;63.89;100632.23;107732;1256;61105;-71
2023/08/23 03:34:53;;;;;;;7.10;3.10;;;;;;;18.52;63.74;100624.59;107920;1257;74483;-72
2023/08/23 03:37:20;;;;;;;5.90;3.20;;;;;;;18.54;63.53;100612.25;107798;1257;71341;-72
2023/08/23 03:39:47;;;;;;;5.20;3.10;;;;;;;18.56;63.21;100614.05;107959;1257;71197;-71
2023/08/23 03:42:17;;;;;;;5.60;3.60;;;;;;;18.59;63.12;100616.58;107703;1258;61245;-71
2023/08/23 03:44:44;;;;;;;5.60;2.80;;;;;;;18.61;62.98;100622.14;107743;1257;61144;-73
2023/08/23 03:47:11;;;;;;;6.20;3.10;;;;;;;18.65;62.76;100625.56;107830;1255;74493;-70
2023/08/23 03:49:38;;;;;;;4.70;3.00;;;;;;;18.68;62.79;100627.91;107878;1258;73005;-70
2023/08/23 03:52:06;;;;;;;5.90;3.10;;;;;;;18.75;62.82;100621.86;107981;1258;71444;-72
2023/08/23 03:54:33;;;;;;;5.60;2.90;;;;;;;18.81;62.88;100612.40;107884;1258;61915;-72
2023/08/23 03:57:00;;;;;;;6.60;3.10;;;;;;;18.86;62.70;100611.52;107965;1256;61196;-71
2023/08/23 03:59:27;;;;;;;5.40;3.20;;;;;;;18.92;62.56;100612.88;107673;1257;74734;-72
2023/08/23 04:01:54;;;;;;;6.50;3.70;;;;;;;18.99;62.34;100612.90;107805;1257;72761;-73
2023/08/23 04:04:21;;;;;;;5.10;3.00;;;;;;;19.04;62.16;100620.26;107598;1255;72710;-74
2023/08/23 04:06:48;;;;;;;6.30;3.40;;;;;;;19.08;62.02;100618.42;107978;1257;61206;-72
2023/08/23 04:09:16;;;;;;;6.40;3.40;;;;;;;19.12;61.77;100621.71;107969;1257;61183;-71
2023/08/23 04:11:44;;;;;;;6.50;3.50;;;;;;;19.12;61.35;100624.47;107791;1259;74588;-70
2023/08/23 04:14:11;;;;;;;7.20;3.20;;;;;;;19.16;61.24;100628.36;107729;1257;72831;-72
2023/08/23 04:16:39;;;;;;;6.00;3.40;;;;;;;19.25;61.22;100634.58;107857;1257;72023;-71
2023/08/23 04:19:07;;;;;;;5.80;3.30;;;;;;;19.32;60.96;100630.36;107830;1256;63345;-71
2023/08/23 04:21:34;;;;;;;7.40;3.30;;;;;;;19.38;60.39;100622.67;107816;1256;61429;-70
2023/08/23 04:24:01;;;;;;;6.90;3.30;;;;;;;19.45;60.07;100615.05;107695;1256;74657;-70
2023/08/23 04:26:29;;;;;;;5.80;3.30;;;;;;;19.55;59.87;100613.85;107739;1256;72556;-70
2023/08/23 04:28:56;;;;;;;6.20;3.50;;;;;;;19.43;59.67;100611.38;107736;1256;72693;-70
2023/08/23 04:31:23;;;;;;;6.40;3.00;;;;;;;19.59;59.30;100605.71;107847;1257;61799;-72
2023/08/23 04:33:55;;;;;;;8.30;3.50;;;;;;;19.69;58.56;100605.05;107896;1256;61141;-71
2023/08/23 04:36:22;;;;;;;6.50;3.40;;;;;;;19.77;58.60;100602.47;107971;1257;74829;-70
2023/08/23 04:38:49;;;;;;;5.50;3.30;;;;;;;19.88;58.75;100598.45;107739;1256;72601;-71
2023/08/23 04:41:16;;;;;;;5.70;3.20;;;;;;;20.02;58.49;100601.17;107859;1258;73656;-72
2023/08/23 04:43:43;;;;;;;6.70;3.40;;;;;;;20.15;58.27;100599.77;107989;1257;61202;-71
2023/08/23 04:46:10;;;;;;;6.20;3.40;;;;;;;20.29;57.46;100604.42;107726;1255;61471;-71
2023/08/23 04:48:38;;;;;;;5.90;3.30;;;;;;;20.38;56.91;100603.23;107978;1256;74274;-71
2023/08/23 04:51:08;;;;;;;6.00;2.90;;;;;;;20.43;56.57;100609.18;107848;1255;71809;-71
2023/08/23 04:53:35;;;;;;;5.10;3.10;;;;;;;20.46;56.49;100611.86;107718;1257;73033;-72
2023/08/23 04:56:03;;;;;;;5.70;2.90;;;;;;;20.50;56.55;100615.11;107884;1257;61808;-72
2023/08/23 04:58:30;;;;;;;6.00;3.00;;;;;;;20.52;56.35;100615.64;107830;1261;61167;-73
2023/08/23 05:00:58;;;;;;;6.00;3.20;;;;;;;20.54;56.11;100622.70;108054;1258;75914;-72
2023/08/23 05:03:26;;;;;;;6.30;2.70;;;;;;;20.54;55.65;100621.64;107700;1257;72817;-71
2023/08/23 05:05:53;;;;;;;5.20;2.60;;;;;;;20.55;55.89;100615.45;108032;1256;72711;-71
2023/08/23 05:08:21;;;;;;;4.90;2.90;;;;;;;20.61;55.88;100618.82;108463;1255;61204;-72
2023/08/23 05:10:52;;;;;;;5.70;3.10;;;;;;;20.66;55.57;100617.95;107754;1260;61334;-72
2023/08/23 05:13:20;;;;;;;5.70;2.90;;;;;;;20.72;55.62;100617.67;107883;1257;74646;-72
2023/08/23 05:15:57;;;;;;;5.00;2.70;;;;;;;20.78;55.52;100622.27;108089;1257;72962;-71
2023/08/23 05:18:24;;;;;;;4.60;2.40;;;;;;;20.87;55.34;100627.40;108049;1256;71301;-71
2023/08/23 05:20:54;;;;;;;5.60;2.50;;;;;;;20.92;55.03;100624.07;107718;1256;61872;-70
2023/08/23 05:23:24;;;;;;;5.60;2.80;;;;;;;20.96;54.66;100619.89;108364;1255;61353;-71
2023/08/23 05:25:52;;;;;;;6.30;2.70;;;;;;;20.98;54.21;100616.02;107989;1255;74124;-71
2023/08/23 05:28:19;;;;;;;5.60;3.20;;;;;;;21.01;54.38;100619.16;107730;1256;72632;-71
2023/08/23 05:30:47;;;;;;;5.10;3.10;;;;;;;21.07;54.59;100623.43;107857;1256;70625;-72
2023/08/23 05:33:17;;;;;;;6.70;3.00;;;;;;;21.17;54.82;100628.29;108144;1255;61391;-71
2023/08/23 05:35:44;;;;;;;5.60;3.00;;;;;;;21.22;54.52;100626.63;107687;1256;61114;-70
2023/08/23 05:38:11;;;;;;;5.10;2.50;;;;;;;21.31;54.43;100622.91;107716;1256;74589;-69
2023/08/23 05:40:39;;;;;;;5.30;2.60;;;;;;;21.41;54.23;100624.52;107713;1256;72858;-72
2023/08/23 05:43:06;;;;;;;4.70;2.80;;;;;;;21.53;54.08;100625.31;107963;1256;72488;-72
2023/08/23 05:45:33;;;;;;;6.90;2.80;;;;;;;21.67;53.74;100625.19;107916;1255;61462;-70
2023/08/23 05:48:00;;;;;;;4.90;2.50;;;;;;;21.78;53.24;100627.27;107870;1256;59891;-70
2023/08/23 05:50:27;;;;;;;6.40;2.70;;;;;;;21.89;52.87;100629.17;107992;1256;74572;-72
2023/08/23 05:52:54;;;;;;;6.80;3.00;;;;;;;22.00;52.53;100627.87;107832;1256;72713;-74
2023/08/23 05:55:21;;;;;;;6.50;2.60;;;;;;;22.12;52.37;100621.48;107898;1255;73718;-73
2023/08/23 05:57:48;;;;;;;4.40;2.40;;;;;;;22.26;52.05;100616.53;107856;1256;61132;-73
2023/08/23 06:00:15;;;;;;;4.60;2.60;;;;;;;22.39;51.74;100618.77;107968;1255;61112;-73
2023/08/23 06:02:43;;;;;;;4.70;2.50;;;;;;;22.52;51.31;100615.13;107944;1256;74676;-71
2023/08/23 06:05:13;;;;;;;6.10;2.50;;;;;;;22.64;50.36;100618.98;107919;1256;73981;-72
2023/08/23 06:07:41;;;;;;;6.30;2.30;;;;;;;22.74;50.08;100613.02;107916;1255;72503;-73
2023/08/23 06:10:09;;;;;;;4.40;2.30;;;;;;;22.90;49.75;100615.71;107848;1254;61283;-73
2023/08/23 06:12:36;;;;;;;5.40;2.60;;;;;;;23.05;49.68;100611.64;107839;1256;61805;-73
2023/08/23 06:15:04;;;;;;;4.20;2.30;;;;;;;23.20;49.14;100612.33;107744;1257;74408;-72
2023/08/23 06:17:32;;;;;;;7.40;2.90;;;;;;;23.30;48.75;100609.16;107888;1255;72638;-74
2023/08/23 06:19:59;;;;;;;6.70;2.70;;;;;;;23.39;48.20;100609.20;107774;1259;72715;-73
2023/08/23 06:22:27;;;;;;;4.90;2.40;;;;;;;23.51;48.24;100607.16;107939;1256;61208;-72
2023/08/23 06:24:54;;;;;;;5.10;2.70;;;;;;;23.70;47.15;100607.66;107733;1256;61089;-72
2023/08/23 06:27:21;;;;;;;5.20;2.40;;;;;;;23.85;46.73;100607.44;107680;1256;74469;-72
2023/08/23 06:29:48;;;;;;;5.60;2.60;;;;;;;24.00;46.27;100609.09;107886;1256;71846;-73
2023/08/23 06:32:15;;;;;;;7.80;2.60;;;;;;;24.07;46.20;100611.09;107836;1259;72768;-72
2023/08/23 06:34:42;;;;;;;4.80;2.40;;;;;;;24.06;46.36;100613.02;107650;1256;61319;-71
2023/08/23 06:37:09;;;;;;;6.50;2.30;;;;;;;24.02;46.21;100614.30;107878;1255;63064;-72
2023/08/23 06:39:36;;;;;;;5.10;2.50;;;;;;;24.02;45.58;100612.45;107797;1256;75126;-72
2023/08/23 06:42:03;;;;;;;6.20;2.50;;;;;;;24.05;45.33;100609.48;107643;1255;73235;-73
2023/08/23 06:44:31;;;;;;;8.10;2.60;;;;;;;24.06;44.72;100602.34;107807;1256;72656;-73
2023/08/23 06:46:58;;;;;;;6.10;2.40;;;;;;;24.05;44.22;100602.61;107686;1256;62333;-72
2023/08/23 06:49:24;;;;;;;5.70;2.40;;;;;;;24.00;44.26;100601.23;107654;1255;61331;-73
2023/08/23 06:51:51;;;;;;;6.70;2.10;;;;;;;23.99;44.54;100606.57;107818;1256;74632;-73
2023/08/23 06:54:20;;;;;;;6.20;2.50;;;;;;;24.02;44.85;100602.52;107774;1255;72235;-71
2023/08/23 06:56:47;;;;;;;5.90;2.20;;;;;;;24.07;44.78;100607.04;107758;1254;71208;-73
2023/08/23 06:59:14;;;;;;;5.30;2.10;;;;;;;24.15;44.08;100609.42;107730;1256;61201;-72
2023/08/23 07:01:41;;;;;;;7.60;2.10;;;;;;;24.22;43.25;100607.98;107828;1257;61154;-73
2023/08/23 07:04:08;;;;;;;5.70;2.40;;;;;;;24.29;43.28;100599.77;107831;1256;73407;-72
2023/08/23 07:06:35;;;;;;;6.50;2.20;;;;;;;24.42;43.38;100601.77;107839;1256;72463;-72
2023/08/23 07:09:02;;;;;;;6.70;2.00;;;;;;;24.55;43.41;100602.36;107867;1259;72713;-72
2023/08/23 07:11:29;;;;;;;5.70;1.90;;;;;;;24.66;42.62;100596.70;107790;1256;61910;-71
2023/08/23 07:13:56;;;;;;;4.70;2.10;;;;;;;24.69;41.85;100598.35;107958;1255;61254;-73
2023/08/23 07:16:23;;;;;;;7.10;2.30;;;;;;;24.71;42.27;100597.77;107819;1256;74518;-72
2023/08/23 07:18:50;;;;;;;6.70;2.00;;;;;;;24.80;42.36;100598.92;107944;1255;72659;-74
2023/08/23 07:21:17;;;;;;;4.10;1.80;;;;;;;24.90;41.49;100598.95;107912;1257;72485;-72
2023/08/23 07:23:44;;;;;;;5.80;2.10;;;;;;;24.90;40.61;100603.48;107816;1254;61194;-72
2023/08/23 07:26:11;;;;;;;4.80;2.00;;;;;;;24.89;41.31;100600.48;108014;1256;61143;-71
2023/08/23 07:28:37;;;;;;;6.60;2.20;;;;;;;24.89;40.55;100591.59;107927;1256;74878;-74
2023/08/23 07:31:07;;;;;;;5.10;2.00;;;;;;;24.92;40.81;100591.59;107833;1258;72789;-72
2023/08/23 07:33:33;;;;;;;3.80;1.80;;;;;;;25.00;41.13;100590.14;107815;1256;73246;-71
2023/08/23 07:36:00;;;;;;;6.40;2.20;;;;;;;25.10;40.97;100590.46;107845;1256;61166;-71
2023/08/23 07:38:34;;;;;;;6.50;2.00;;;;;;;25.17;40.29;100593.62;107882;1259;61180;-71
2023/08/23 07:41:03;;;;;;;4.40;1.90;;;;;;;25.21;40.23;100595.27;107898;1255;73347;-71
2023/08/23 07:43:29;;;;;;;8.10;2.10;;;;;;;25.27;40.57;100600.95;107784;1256;75261;-72
2023/08/23 07:45:57;;;;;;;5.10;1.80;;;;;;;25.30;40.28;100595.70;107839;1256;72778;-72
2023/08/23 07:48:25;;;;;;;6.20;2.30;;;;;;;25.33;39.76;100591.10;108039;1255;60259;-72
2023/08/23 07:50:53;;;;;;;5.40;2.20;;;;;;;25.37;39.69;100593.91;107994;1256;62952;-71
2023/08/23 07:53:20;;;;;;;6.70;1.80;;;;;;;25.33;39.92;100596.16;107778;1256;73737;-72
2023/08/23 07:55:46;;;;;;;3.90;1.90;;;;;;;25.33;40.03;100596.64;107870;1256;71774;-71
2023/08/23 07:58:14;;;;;;;5.10;1.80;;;;;;;25.42;40.02;100594.43;107911;1255;71138;-70
2023/08/23 08:00:41;;;;;;;5.20;1.90;;;;;;;25.45;39.42;100595.18;107828;1256;61244;-73
2023/08/23 08:03:11;;;;;;;5.40;1.90;;;;;;;25.40;39.95;100595.70;107855;1256;61122;-70
2023/08/23 08:05:38;;;;;;;4.80;1.80;;;;;;;25.43;40.24;100597.27;107902;1256;74717;-70
2023/08/23 08:08:05;;;;;;;4.20;1.90;;;;;;;25.44;39.88;100600.56;107702;1255;71224;-72
2023/08/23 08:10:35;;;;;;;4.90;1.90;;;;;;;25.38;39.44;100599.48;107707;1255;72605;-71
2023/08/23 08:13:02;;;;;;;4.40;1.60;;;;;;;25.31;40.26;100599.26;107695;1256;61242;-71
2023/08/23 08:15:29;;;;;;;4.30;1.90;;;;;;;25.34;40.91;100600.57;107725;1259;61282;-69
2023/08/23 08:17:56;;;;;;;4.70;1.90;;;;;;;25.48;40.95;100604.16;107729;1256;73492;-70
2023/08/23 08:20:24;;;;;;;4.20;1.70;;;;;;;25.64;40.79;100600.76;107713;1256;72605;-73
2023/08/23 08:22:52;;;;;;;6.50;1.80;;;;;;;25.79;40.07;100598.14;107798;1255;72571;-71
2023/08/23 08:25:19;;;;;;;6.30;1.90;;;;;;;25.86;39.54;100596.55;107856;1255;61205;-70
2023/08/23 08:27:46;;;;;;;4.90;1.50;;;;;;;25.95;39.45;100591.27;107750;1255;61563;-73
2023/08/23 08:30:14;;;;;;;4.30;1.70;;;;;;;26.09;39.55;100595.06;107772;1256;75883;-70
2023/08/23 08:32:41;;;;;;;3.70;1.50;;;;;;;26.20;38.81;100592.55;107846;1255;72728;-69
2023/08/23 08:35:09;;;;;;;3.10;1.40;;;;;;;26.28;38.33;100587.54;107771;1256;72481;-68
2023/08/23 08:37:37;;;;;;;4.40;1.40;;;;;;;26.37;38.13;100591.53;107803;1259;61090;-68
2023/08/23 08:40:04;;;;;;;4.60;1.80;;;;;;;26.39;37.20;100590.47;108639;1256;59611;-68
2023/08/23 08:42:32;;;;;;;5.10;1.60;;;;;;;26.38;37.61;100593.90;107791;1256;74772;-69
2023/08/23 08:44:59;;;;;;;6.00;1.90;;;;;;;26.44;37.45;100593.94;108034;1255;72812;-67
2023/08/23 08:47:26;;;;;;;7.00;2.10;;;;;;;26.49;36.81;100591.61;107893;1256;73786;-68
2023/08/23 08:49:53;;;;;;;4.30;1.60;;;;;;;26.46;37.08;100592.55;107974;1255;61460;-69
2023/08/23 08:52:20;;;;;;;4.60;1.70;;;;;;;26.40;37.12;100593.70;107879;1259;61116;-69
2023/08/23 08:54:48;;;;;;;4.70;1.70;;;;;;;26.31;37.11;100590.02;107808;1256;74555;-68
2023/08/23 08:57:15;;;;;;;4.80;1.80;;;;;;;26.30;37.22;100589.06;108035;1255;72546;-69
2023/08/23 08:59:44;;;;;;;5.00;1.90;;;;;;;26.39;37.74;100588.43;107751;1257;74910;-70
2023/08/23 09:02:12;;;;;;;4.20;1.90;;;;;;;26.54;36.98;100590.92;107922;1256;61241;-68
2023/08/23 09:04:40;;;;;;;5.10;1.90;;;;;;;26.64;36.75;100581.41;107912;1255;59677;-69
2023/08/23 09:07:07;;;;;;;3.90;1.60;;;;;;;26.79;36.68;100583.38;107807;1255;74511;-69
2023/08/23 09:09:34;;;;;;;3.40;1.60;;;;;;;26.97;36.32;100583.35;107927;1256;72628;-68
2023/08/23 09:12:01;;;;;;;4.70;1.80;;;;;;;27.00;35.86;100577.43;107500;1256;75153;-69
2023/08/23 09:14:28;;;;;;;5.80;2.10;;;;;;;26.98;36.12;100579.81;107918;1255;61243;-69
2023/08/23 09:16:55;;;;;;;4.10;2.00;;;;;;;26.97;35.84;100579.66;107954;1256;61125;-68
2023/08/23 09:19:22;;;;;;;4.70;1.90;;;;;;;26.93;35.59;100582.80;107748;1255;74439;-69
2023/08/23 09:21:49;;;;;;;6.50;1.90;;;;;;;26.94;35.72;100581.97;107883;1256;74291;-70
2023/08/23 09:24:17;;;;;;;4.40;1.90;;;;;;;26.97;35.58;100580.22;107820;1256;70738;-68
2023/08/23 09:26:44;;;;;;;5.20;2.10;;;;;;;26.96;35.62;100580.35;107860;1256;61078;-69
2023/08/23 09:29:12;;;;;;;3.40;1.70;;;;;;;26.97;35.71;100584.42;107889;1256;61084;-69
2023/08/23 09:31:39;;;;;;;3.20;1.60;;;;;;;27.05;35.53;100577.28;107918;1259;74729;-70
2023/08/23 09:34:14;;;;;;;4.10;1.70;;;;;;;27.14;35.09;100583.30;107745;1256;72607;-71
2023/08/23 09:36:41;;;;;;;4.00;1.70;;;;;;;27.16;34.96;100582.25;107987;1254;71329;-69
2023/08/23 09:39:12;;;;;;;5.40;1.60;;;;;;;27.21;34.66;100578.65;107943;1256;61106;-69
2023/08/23 09:41:42;;;;;;;5.30;1.70;;;;;;;27.25;34.66;100588.04;107753;1256;61212;-70
2023/08/23 09:44:29;;;;;;;3.10;1.60;;;;;;;27.29;34.74;100574.85;107939;1256;74853;-69
2023/08/23 09:46:56;;;;;;;3.80;1.60;;;;;;;27.42;35.01;100577.22;107786;1256;71697;-71
2023/08/23 09:49:23;;;;;;;3.80;1.60;;;;;;;27.59;35.08;100576.58;107646;1256;72444;-69
2023/08/23 09:51:50;;;;;;;5.50;1.80;;;;;;;27.72;34.45;100574.41;107711;1256;60951;-71
2023/08/23 09:54:19;;;;;;;4.40;1.70;;;;;;;27.80;34.33;100567.30;107700;1256;60107;-71
2023/08/23 09:57:06;;;;;;;4.60;1.70;;;;;;;27.94;34.83;100569.13;107863;1256;73835;-68
2023/08/23 09:59:33;;;;;;;6.10;1.80;;;;;;;28.04;34.51;100579.44;107638;1256;72560;-69
2023/08/23 10:02:01;;;;;;;4.30;1.70;;;;;;;28.05;33.90;100578.42;107665;1255;73139;-69
2023/08/23 10:04:29;;;;;;;3.70;1.90;;;;;;;28.04;34.22;100578.10;107954;1256;61198;-68
2023/08/23 10:06:56;;;;;;;4.70;1.80;;;;;;;28.03;33.71;100574.55;107692;1256;59214;-69
2023/08/23 10:09:23;;;;;;;3.50;1.60;;;;;;;28.00;34.08;100575.23;107705;1256;74734;-68
2023/08/23 10:11:50;;;;;;;3.70;1.70;;;;;;;28.05;33.08;100574.51;107688;1256;72721;-70
2023/08/23 10:14:22;;;;;;;3.50;1.90;;;;;;;28.15;32.91;100566.76;107729;1255;72654;-69
2023/08/23 10:16:49;;;;;;;3.90;1.80;;;;;;;28.25;33.22;100563.19;107693;1256;61338;-68
2023/08/23 10:19:16;;;;;;;5.20;1.60;;;;;;;28.27;32.75;100563.20;107794;1256;59989;-69
2023/08/23 10:21:43;;;;;;;3.40;1.60;;;;;;;28.19;32.80;100562.88;107678;1257;74691;-71
2023/08/23 10:24:09;;;;;;;3.70;1.60;;;;;;;28.16;32.82;100560.96;107538;1259;75130;-69
2023/08/23 10:26:48;;;;;;;4.50;1.60;;;;;;;28.21;32.89;100556.16;107657;1255;72429;-69
2023/08/23 10:29:14;;;;;;;7.20;1.90;;;;;;;28.30;33.29;100552.33;107964;1255;61331;-71
2023/08/23 10:31:51;;;;;;;4.00;1.60;;;;;;;28.36;32.92;100553.54;107871;1256;61120;-69
2023/08/23 10:34:25;;;;;;;5.20;1.80;;;;;;;28.33;32.95;100551.56;107787;1255;66489;-69
2023/08/23 10:36:53;;;;;;;3.20;1.40;;;;;;;28.31;32.78;100548.26;107709;1257;64128;-71
2023/08/23 10:39:23;;;;;;;5.50;1.70;;;;;;;28.29;32.74;100546.98;108150;1255;72475;-69
2023/08/23 10:41:53;;;;;;;4.10;1.60;;;;;;;28.23;32.85;100546.84;107898;1256;61059;-69
2023/08/23 10:44:22;;;;;;;5.00;1.60;;;;;;;28.18;32.57;100545.45;107868;1255;62834;-69
2023/08/23 10:46:52;;;;;;;5.80;1.60;;;;;;;28.09;32.36;100545.60;107895;1256;75385;-69
2023/08/23 10:49:22;;;;;;;7.50;2.20;;;;;;;27.98;32.44;100538.42;107935;1255;72593;-70
2023/08/23 10:51:49;;;;;;;6.30;1.60;;;;;;;27.93;32.61;100540.02;107770;1256;72857;-70
2023/08/23 10:54:16;;;;;;;5.70;1.70;;;;;;;27.90;32.70;100534.71;107802;1256;61799;-69
2023/08/23 10:56:43;;;;;;;3.50;1.70;;;;;;;28.01;32.50;100528.88;107967;1256;61295;-70
2023/08/23 10:59:10;;;;;;;3.30;1.40;;;;;;;28.17;31.95;100526.61;107911;1256;67467;-70
2023/08/23 11:01:39;;;;;;;3.50;1.50;;;;;;;28.32;32.41;100525.58;107918;1259;64176;-70
2023/08/23 11:04:09;;;;;;;4.20;1.40;;;;;;;28.42;31.90;100525.80;107939;1255;71597;-68
2023/08/23 11:06:36;;;;;;;5.90;1.80;;;;;;;28.46;31.92;100523.23;107894;1256;61221;-70
2023/08/23 11:09:03;;;;;;;3.60;1.70;;;;;;;28.47;32.08;100523.09;107716;1261;61321;-70
2023/08/23 11:11:30;;;;;;;4.70;1.60;;;;;;;28.47;31.94;100518.92;107939;1256;66130;-69
2023/08/23 11:13:57;;;;;;;3.30;1.40;;;;;;;28.49;31.88;100514.52;107855;1255;71651;-70
2023/08/23 11:16:24;;;;;;;4.80;1.60;;;;;;;28.53;32.01;100508.61;107787;1259;64071;-69
2023/08/23 11:18:50;;;;;;;2.80;1.40;;;;;;;28.62;31.92;100506.86;107784;1256;61139;-69
2023/08/23 11:21:17;;;;;;;4.20;1.40;;;;;;;28.70;32.22;100505.98;107788;1256;61112;-70